Avon Lake, Iowa
Current Conditions -  °F | °C
As of 6:54 AM on Saturday 01 Nov 2014 (Local Time) from KDSM Reporting Station
Few Clouds Few Clouds  
Wind Chill: 28°   Ceiling: Unl
Heat Index: 28°   Visibility: 10mi
Dew Point: 20°   Wind: 3mph
Humidity: 72%   Direction: 130°SE
Pressure: 30.47"   Gusts: NA
Location:  41.4707°N, 93.4797°W
Report Text: KDSM 011154Z 13003KT 10SM FEW250 M02/M07 A3047 RMK AO2 SLP329 T10221067 10006 21050 53000
Loading
Personal Weather Stations






























Interactive Weather Map
Tropical Storm Tracking
New forecast layout! Learn more

10-Day Weather Forecast

Advertisements
Track Severe Weather on mobile